Portada
METAR-TAF:

METAR-TAF

Aeroports :

Kasumigaura, Japó

latitud: 36-02N, longitud: 140-12E, altitud: 26 m

Observació

L'informe es va fer fa 3 hores i 24 minuts, a les 02:26 UTC
Vent 9 kt del Nord/Nord-Est
Temperatura 19°C
Humitat 83%
Pressió 1021 hPa
Visibilitat: 4000 m
Núvols disperses a una alçada de 1500 ft
Cel cobert a una alçada de 3000 ft
pluja, boirina

METAR: RJAK 140226Z 03009KT 4000 -RA BR SCT015 OVC030 19/16 Q1021 RMK 3SC015 8SC030 A3015

Hora: 14:50 (05:50 UTC)


TAF: manca

Observacions i pronòstics meteorològics de més de 4000 aeroports (METAR i TAF).

Les estacions disponibles són els punts grocs i vermells al mapa.

Posi el ratolí al punt desitjat per veure el nom de l'estació.

Feu clic per veure les observacions i els pronòstics meteorològics.

Per canviar el mapa: feu clic els botons verds amb una creu de color negre per apropar; al botó verd amb un guió per allunyar la imatge; o en les fletxes verdes per a mapes adjacents.


METAR-TAF: